createdAt,value
2023-01-30T00:02:19.448Z,28.63
2023-01-30T00:05:06.258Z,25.95
2023-01-30T00:08:09.406Z,27.58
2023-01-30T00:10:56.005Z,27.30
2023-01-30T00:13:43.047Z,25.27
2023-01-30T00:16:29.270Z,25.92
2023-01-30T00:19:15.307Z,26.65
2023-01-30T00:22:04.162Z,27.45
2023-01-30T00:24:51.692Z,26.98
2023-01-30T00:27:37.883Z,27.73
2023-01-30T00:30:23.456Z,26.40
2023-01-30T00:33:10.147Z,25.50
2023-01-30T00:35:57.021Z,26.90
2023-01-30T00:38:42.770Z,27.58
2023-01-30T00:41:49.865Z,27.05
2023-01-30T00:44:54.096Z,25.48
2023-01-30T00:47:39.513Z,25.13
2023-01-30T00:50:25.135Z,26.73
2023-01-30T00:53:11.506Z,25.92
2023-01-30T00:55:58.462Z,25.55
2023-01-30T00:58:45.808Z,25.00
2023-01-30T01:01:31.440Z,23.55
2023-01-30T01:04:16.883Z,24.02
2023-01-30T01:07:02.479Z,23.42
2023-01-30T01:09:48.428Z,23.58
2023-01-30T01:12:34.331Z,22.13
2023-01-30T01:15:22.823Z,20.27
2023-01-30T01:18:08.624Z,18.73
2023-01-30T01:20:54.795Z,18.15
2023-01-30T01:23:40.950Z,16.48
2023-01-30T01:26:27.382Z,16.15
2023-01-30T01:29:14.200Z,16.83
2023-01-30T01:32:01.579Z,15.57
2023-01-30T01:34:47.613Z,15.93
2023-01-30T01:37:33.202Z,15.80
2023-01-30T01:40:39.669Z,15.65
2023-01-30T01:43:26.372Z,15.30
2023-01-30T01:46:20.728Z,14.20
2023-01-30T01:49:15.453Z,15.10
2023-01-30T01:52:05.845Z,14.93
2023-01-30T01:54:54.975Z,14.75
2023-01-30T01:57:44.115Z,14.15
2023-01-30T02:00:31.711Z,13.57
2023-01-30T02:03:23.486Z,13.73
2023-01-30T02:06:11.988Z,12.07
2023-01-30T02:09:02.568Z,13.18
2023-01-30T02:11:56.187Z,12.40
2023-01-30T02:14:43.273Z,11.63
2023-01-30T02:17:32.214Z,12.30
2023-01-30T02:20:27.708Z,12.75
2023-01-30T02:24:04.500Z,11.38
2023-01-30T02:27:31.934Z,10.35
2023-01-30T02:30:42.812Z,10.23
2023-01-30T02:36:27.784Z,10.48
2023-01-30T02:39:25.180Z,10.15
2023-01-30T02:42:19.585Z,10.38
2023-01-30T02:45:12.263Z,10.45
2023-01-30T02:48:02.699Z,9.52
2023-01-30T02:50:55.102Z,9.70
2023-01-30T02:53:41.159Z,9.05
2023-01-30T02:56:27.438Z,9.65
2023-01-30T02:59:15.457Z,9.30
2023-01-30T03:02:28.052Z,8.68
2023-01-30T03:05:37.997Z,8.50
2023-01-30T03:08:32.141Z,9.10
2023-01-30T03:11:24.452Z,9.38
2023-01-30T03:14:20.295Z,9.02
2023-01-30T03:17:07.426Z,8.93
2023-01-30T03:19:54.968Z,9.25
2023-01-30T03:22:42.011Z,9.27
2023-01-30T03:25:28.354Z,9.15
2023-01-30T03:28:17.409Z,9.50
2023-01-30T03:31:03.488Z,8.73
2023-01-30T03:33:49.969Z,9.48
2023-01-30T03:36:36.486Z,8.15
2023-01-30T03:39:25.741Z,9.48
2023-01-30T03:42:12.026Z,9.18
2023-01-30T03:44:58.241Z,9.05
2023-01-30T03:47:44.932Z,8.70
2023-01-30T03:50:31.567Z,8.63
2023-01-30T03:53:17.278Z,8.48
2023-01-30T03:56:05.803Z,8.63
2023-01-30T03:58:53.708Z,9.70
2023-01-30T04:01:48.362Z,8.73
2023-01-30T04:04:33.951Z,9.10
2023-01-30T04:07:21.514Z,8.30
2023-01-30T04:10:10.653Z,8.20
2023-01-30T04:12:57.643Z,8.50
2023-01-30T04:15:43.780Z,9.13
2023-01-30T04:18:52.517Z,9.15
2023-01-30T04:21:39.974Z,8.55
2023-01-30T04:24:25.643Z,8.70
2023-01-30T04:27:10.961Z,9.75
2023-01-30T04:30:09.226Z,9.52
2023-01-30T04:32:54.769Z,9.43
2023-01-30T04:35:40.861Z,8.75
2023-01-30T04:38:28.186Z,8.75
2023-01-30T04:41:13.817Z,8.60
2023-01-30T04:44:01.782Z,9.45
2023-01-30T04:47:08.593Z,7.95
2023-01-30T04:49:54.675Z,7.72
2023-01-30T04:52:40.244Z,9.00
2023-01-30T04:55:26.694Z,12.25
2023-01-30T04:58:12.405Z,21.70
2023-01-30T05:01:13.039Z,10.55
2023-01-30T05:04:01.009Z,6.82
2023-01-30T05:06:46.839Z,7.63
2023-01-30T05:09:32.712Z,6.72
2023-01-30T05:12:19.562Z,6.35
2023-01-30T05:15:06.797Z,5.47
2023-01-30T05:17:52.606Z,5.88
2023-01-30T05:20:39.458Z,5.55
2023-01-30T05:23:25.121Z,4.70
2023-01-30T05:26:12.205Z,5.50
2023-01-30T05:28:58.570Z,4.53
2023-01-30T05:31:44.796Z,3.53
2023-01-30T05:34:30.642Z,4.13
2023-01-30T05:37:17.949Z,3.45
2023-01-30T05:40:05.333Z,3.88
2023-01-30T05:42:51.418Z,3.45
2023-01-30T05:45:37.463Z,3.85
2023-01-30T05:48:23.604Z,3.28
2023-01-30T05:51:16.801Z,3.05
2023-01-30T05:54:03.888Z,3.40
2023-01-30T05:56:50.494Z,2.95
2023-01-30T05:59:36.189Z,3.10
2023-01-30T06:02:21.716Z,2.70
2023-01-30T06:05:08.433Z,3.28
2023-01-30T06:07:54.382Z,2.78
2023-01-30T06:10:41.394Z,3.03
2023-01-30T06:13:26.904Z,2.50
2023-01-30T06:16:16.425Z,2.58
2023-01-30T06:19:02.436Z,2.40
2023-01-30T06:21:48.568Z,2.42
2023-01-30T06:24:34.117Z,2.17
2023-01-30T06:27:21.174Z,2.65
2023-01-30T06:30:07.900Z,2.58
2023-01-30T06:32:53.500Z,3.35
2023-01-30T06:35:48.997Z,2.97
2023-01-30T06:38:35.473Z,3.38
2023-01-30T06:41:24.168Z,3.22
2023-01-30T06:44:11.063Z,2.90
2023-01-30T06:46:56.776Z,3.00
2023-01-30T06:49:42.300Z,2.85
2023-01-30T06:52:27.906Z,2.88
2023-01-30T06:55:15.853Z,2.65
2023-01-30T06:58:03.804Z,3.42
2023-01-30T07:00:53.123Z,2.97
2023-01-30T07:03:40.787Z,2.88
2023-01-30T07:06:27.008Z,3.08
2023-01-30T07:09:12.607Z,2.65
2023-01-30T07:11:58.204Z,2.92
2023-01-30T07:14:45.102Z,2.83
2023-01-30T07:17:32.585Z,3.13
2023-01-30T07:20:18.070Z,3.38
2023-01-30T07:23:03.910Z,3.47
2023-01-30T07:25:49.408Z,2.90
2023-01-30T07:28:35.004Z,4.35
2023-01-30T07:31:20.593Z,4.40
2023-01-30T07:34:07.647Z,6.28
2023-01-30T07:36:53.494Z,3.83
2023-01-30T07:39:39.008Z,2.63
2023-01-30T07:42:25.017Z,3.30
2023-01-30T07:45:12.184Z,2.95
2023-01-30T07:47:57.860Z,3.38
2023-01-30T07:50:45.453Z,3.40
2023-01-30T07:53:31.023Z,3.03
2023-01-30T07:56:18.722Z,3.95
2023-01-30T07:59:05.724Z,2.80
2023-01-30T08:01:51.704Z,2.78
2023-01-30T08:04:38.412Z,2.80
2023-01-30T08:07:25.517Z,2.53
2023-01-30T08:10:12.238Z,2.75
2023-01-30T08:12:57.904Z,2.30
2023-01-30T08:15:43.787Z,2.22
2023-01-30T08:18:29.720Z,3.20
2023-01-30T08:21:15.397Z,2.65
2023-01-30T08:24:02.705Z,2.88
2023-01-30T08:26:49.155Z,2.10
2023-01-30T08:29:34.815Z,2.42
2023-01-30T08:32:20.281Z,2.60
2023-01-30T08:35:06.894Z,2.80
2023-01-30T08:37:52.530Z,4.00
2023-01-30T08:40:40.150Z,3.13
2023-01-30T08:43:26.005Z,1.92
2023-01-30T08:46:11.608Z,2.53
2023-01-30T08:48:57.492Z,2.42
2023-01-30T08:51:43.414Z,2.42
2023-01-30T08:54:29.839Z,2.53
2023-01-30T08:57:17.552Z,2.20
2023-01-30T09:00:04.978Z,2.22
2023-01-30T09:02:53.328Z,2.65
2023-01-30T09:05:39.422Z,2.72
2023-01-30T09:08:25.118Z,2.67
2023-01-30T09:11:11.706Z,2.92
2023-01-30T09:13:58.897Z,1.90
2023-01-30T09:16:44.907Z,2.50
2023-01-30T09:19:30.586Z,3.10
2023-01-30T09:22:16.990Z,2.65
2023-01-30T09:25:03.880Z,3.08
2023-01-30T09:27:50.487Z,2.88
2023-01-30T09:30:37.753Z,3.47
2023-01-30T09:33:23.685Z,2.75
2023-01-30T09:36:09.838Z,2.72
2023-01-30T09:38:55.394Z,2.67
2023-01-30T09:42:10.747Z,2.55
2023-01-30T09:45:29.378Z,2.70
2023-01-30T09:48:21.102Z,2.67
2023-01-30T09:51:34.950Z,2.80
2023-01-30T09:54:24.272Z,2.28
2023-01-30T09:57:21.977Z,2.45
2023-01-30T10:00:17.624Z,2.58
2023-01-30T10:03:11.343Z,2.45
2023-01-30T10:06:04.955Z,2.38
2023-01-30T10:08:59.623Z,4.35
2023-01-30T10:12:03.791Z,2.50
2023-01-30T10:15:06.667Z,2.72
2023-01-30T10:18:13.658Z,2.53
2023-01-30T10:21:09.827Z,2.15
2023-01-30T10:24:11.218Z,2.00
2023-01-30T10:26:57.481Z,2.60
2023-01-30T10:29:47.014Z,2.92
2023-01-30T10:32:37.753Z,2.65
2023-01-30T10:35:27.437Z,2.70
2023-01-30T10:38:19.820Z,2.42
2023-01-30T10:41:13.062Z,2.80
2023-01-30T10:44:04.198Z,2.35
2023-01-30T10:47:24.387Z,2.65
2023-01-30T10:50:17.676Z,2.30
2023-01-30T10:53:13.907Z,1.92
2023-01-30T10:56:12.686Z,2.78
2023-01-30T10:59:06.479Z,2.40
2023-01-30T11:02:01.587Z,2.63
2023-01-30T11:04:56.528Z,3.40
2023-01-30T11:07:45.881Z,3.33
2023-01-30T11:10:32.391Z,2.75
2023-01-30T11:13:21.327Z,2.55
2023-01-30T11:16:09.464Z,2.70
2023-01-30T11:22:06.280Z,3.03
2023-01-30T11:25:01.554Z,2.50
2023-01-30T11:27:54.903Z,2.80
2023-01-30T11:30:41.958Z,2.45
2023-01-30T11:33:32.997Z,3.08
2023-01-30T11:36:27.771Z,2.72
2023-01-30T11:39:28.096Z,2.70
2023-01-30T11:42:14.035Z,2.22
2023-01-30T11:45:17.353Z,3.28
2023-01-30T11:48:31.658Z,3.08
2023-01-30T11:51:19.778Z,2.90
2023-01-30T11:54:11.484Z,3.45
2023-01-30T11:56:59.001Z,3.42
2023-01-30T11:59:47.605Z,2.90
2023-01-30T12:02:36.173Z,2.90
2023-01-30T12:05:29.366Z,2.83
2023-01-30T12:08:40.780Z,3.08
2023-01-30T12:11:31.005Z,2.65
2023-01-30T12:14:34.586Z,2.78
2023-01-30T12:17:23.773Z,3.03
2023-01-30T12:20:17.860Z,2.65
2023-01-30T12:23:14.712Z,3.17
2023-01-30T12:26:05.767Z,2.83
2023-01-30T12:28:57.117Z,2.60
2023-01-30T12:31:46.532Z,2.55
2023-01-30T12:34:32.343Z,2.88
2023-01-30T12:37:40.319Z,3.22
2023-01-30T12:40:40.023Z,3.35
2023-01-30T12:43:54.942Z,2.22
2023-01-30T12:46:54.187Z,3.22
2023-01-30T12:49:57.640Z,3.40
2023-01-30T12:53:05.312Z,3.03
2023-01-30T12:56:03.295Z,3.05
2023-01-30T12:58:55.411Z,2.70
2023-01-30T13:01:52.770Z,2.83
2023-01-30T13:04:56.630Z,3.60
2023-01-30T13:08:10.684Z,2.85
2023-01-30T13:11:06.747Z,2.65
2023-01-30T13:13:56.864Z,3.17
2023-01-30T13:16:55.267Z,2.65
2023-01-30T13:19:47.073Z,3.10
2023-01-30T13:22:40.081Z,3.47
2023-01-30T13:25:35.772Z,2.90
2023-01-30T13:28:27.033Z,3.47
2023-01-30T13:31:16.823Z,4.00
2023-01-30T13:34:06.348Z,3.03
2023-01-30T13:36:59.193Z,3.08
2023-01-30T13:39:48.991Z,3.53
2023-01-30T13:42:42.391Z,3.35
2023-01-30T13:45:31.840Z,3.92
2023-01-30T13:48:30.845Z,3.33
2023-01-30T13:51:37.023Z,3.00
2023-01-30T13:54:38.078Z,3.65
2023-01-30T13:57:33.018Z,3.05
2023-01-30T14:00:33.634Z,2.97
2023-01-30T14:03:25.717Z,3.15
2023-01-30T14:06:37.312Z,3.13
2023-01-30T14:09:29.892Z,2.92
2023-01-30T14:12:19.375Z,2.65
2023-01-30T14:15:24.103Z,3.40
2023-01-30T14:18:23.368Z,3.00
2023-01-30T14:21:15.033Z,2.67
2023-01-30T14:24:02.120Z,2.72
2023-01-30T14:27:22.915Z,3.20
2023-01-30T14:30:35.007Z,3.42
2023-01-30T14:33:47.767Z,2.97
2023-01-30T14:36:36.531Z,3.33
2023-01-30T14:39:49.236Z,3.53
2023-01-30T14:42:35.087Z,3.75
2023-01-30T14:45:44.955Z,3.22
2023-01-30T14:51:26.303Z,2.67
2023-01-30T14:54:25.504Z,3.08
2023-01-30T15:00:18.021Z,3.47
2023-01-30T15:03:16.907Z,3.35
2023-01-30T15:06:07.157Z,3.25
2023-01-30T15:08:53.186Z,2.80
2023-01-30T15:11:43.720Z,2.35
2023-01-30T15:14:33.396Z,4.37
2023-01-30T15:17:29.054Z,3.08
2023-01-30T15:20:40.068Z,2.90
2023-01-30T15:23:57.452Z,3.33
2023-01-30T15:26:52.238Z,3.15
2023-01-30T15:30:03.719Z,3.00
2023-01-30T15:35:35.116Z,2.92
2023-01-30T15:38:25.389Z,2.85
2023-01-30T15:41:12.703Z,2.97
2023-01-30T15:44:33.039Z,3.45
2023-01-30T15:47:48.119Z,2.60
2023-01-30T15:50:33.714Z,2.70
2023-01-30T15:53:26.355Z,2.58
2023-01-30T15:56:21.931Z,3.75
2023-01-30T15:59:08.580Z,3.25
2023-01-30T16:02:06.332Z,3.53
2023-01-30T16:05:07.419Z,2.92
2023-01-30T16:07:54.825Z,4.10
2023-01-30T16:10:46.426Z,3.13
2023-01-30T16:13:34.972Z,2.97
2023-01-30T16:16:20.930Z,3.10
2023-01-30T16:19:08.980Z,3.17
2023-01-30T16:21:57.878Z,4.05
2023-01-30T16:24:46.118Z,4.18
2023-01-30T16:27:34.473Z,4.32
2023-01-30T16:30:24.574Z,2.92
2023-01-30T16:33:12.110Z,5.40
2023-01-30T16:36:02.080Z,4.57
2023-01-30T16:38:48.847Z,2.78
2023-01-30T16:41:36.994Z,3.40
2023-01-30T16:44:24.187Z,3.92
2023-01-30T16:47:22.985Z,3.58
2023-01-30T16:50:17.699Z,4.15
2023-01-30T16:53:04.007Z,5.22
2023-01-30T16:55:55.984Z,4.10
2023-01-30T16:58:46.222Z,4.10
2023-01-30T17:01:40.129Z,3.00
2023-01-30T17:04:30.360Z,3.58
2023-01-30T17:07:33.980Z,3.17
2023-01-30T17:10:54.921Z,3.83
2023-01-30T17:13:41.711Z,4.23
2023-01-30T17:16:33.457Z,3.20
2023-01-30T17:19:20.117Z,18.38
2023-01-30T17:22:16.176Z,2.90
2023-01-30T17:25:04.877Z,3.40
2023-01-30T17:27:50.759Z,3.15
2023-01-30T17:30:36.697Z,3.30
2023-01-30T17:33:22.539Z,3.20
2023-01-30T17:36:23.067Z,3.03
2023-01-30T17:41:58.485Z,4.05
2023-01-30T17:44:44.040Z,3.67
2023-01-30T17:47:30.489Z,3.30
2023-01-30T17:50:16.207Z,3.20
2023-01-30T17:53:02.230Z,2.75
2023-01-30T17:55:49.869Z,4.18
2023-01-30T17:58:36.102Z,3.67
2023-01-30T18:01:22.173Z,3.00
2023-01-30T18:04:08.119Z,3.20
2023-01-30T18:06:59.492Z,3.10
2023-01-30T18:12:32.294Z,2.55
2023-01-30T18:15:18.452Z,2.88
2023-01-30T18:18:04.518Z,3.60
2023-01-30T18:20:50.363Z,3.08
2023-01-30T18:23:37.281Z,4.28
2023-01-30T18:26:22.982Z,2.42
2023-01-30T18:29:10.922Z,5.20
2023-01-30T18:32:03.421Z,2.97
2023-01-30T18:34:49.049Z,3.05
2023-01-30T18:37:34.894Z,2.85
2023-01-30T18:40:21.267Z,3.40
2023-01-30T18:43:07.383Z,2.95
2023-01-30T18:46:03.881Z,2.67
2023-01-30T18:48:49.784Z,2.90
2023-01-30T18:51:35.764Z,3.15
2023-01-30T18:54:21.500Z,2.42
2023-01-30T18:57:07.369Z,2.85
2023-01-30T18:59:53.260Z,2.55
2023-01-30T19:02:40.700Z,2.25
2023-01-30T19:05:26.558Z,3.05
2023-01-30T19:08:12.080Z,2.25
2023-01-30T19:11:24.013Z,2.60
2023-01-30T19:14:10.272Z,3.05
2023-01-30T19:16:55.843Z,2.70
2023-01-30T19:19:43.415Z,3.03
2023-01-30T19:22:29.157Z,3.03
2023-01-30T19:25:15.133Z,2.63
2023-01-30T19:28:01.127Z,3.38
2023-01-30T19:30:47.080Z,3.83
2023-01-30T19:33:33.753Z,3.40
2023-01-30T19:36:22.442Z,3.72
2023-01-30T19:39:10.467Z,4.10
2023-01-30T19:41:56.677Z,3.47
2023-01-30T19:44:42.845Z,3.92
2023-01-30T19:47:28.559Z,3.63
2023-01-30T19:50:14.582Z,4.32
2023-01-30T19:53:01.821Z,4.00
2023-01-30T19:55:50.595Z,3.88
2023-01-30T19:58:36.631Z,4.07
2023-01-30T20:01:24.468Z,3.90
2023-01-30T20:04:10.578Z,4.07
2023-01-30T20:06:56.100Z,4.07
2023-01-30T20:09:43.143Z,3.72
2023-01-30T20:12:28.866Z,3.78
2023-01-30T20:15:14.934Z,3.88
2023-01-30T20:18:00.578Z,4.13
2023-01-30T20:20:46.023Z,4.07
2023-01-30T20:23:31.984Z,4.72
2023-01-30T20:26:21.379Z,4.43
2023-01-30T20:29:08.733Z,3.33
2023-01-30T20:31:54.779Z,4.13
2023-01-30T20:34:40.845Z,5.10
2023-01-30T20:37:26.532Z,4.43
2023-01-30T20:40:12.773Z,3.65
2023-01-30T20:43:00.145Z,4.32
2023-01-30T20:45:45.805Z,3.20
2023-01-30T20:48:31.908Z,3.10
2023-01-30T20:51:20.280Z,3.55
2023-01-30T20:54:07.793Z,4.03
2023-01-30T20:56:54.399Z,3.70
2023-01-30T20:59:42.260Z,3.03
2023-01-30T21:02:28.524Z,5.88
2023-01-30T21:05:14.155Z,3.90
2023-01-30T21:07:59.631Z,3.55
2023-01-30T21:10:47.211Z,3.50
2023-01-30T21:13:33.667Z,2.90
2023-01-30T21:16:22.609Z,4.80
2023-01-30T21:19:14.096Z,4.70
2023-01-30T21:22:04.470Z,4.22
2023-01-30T21:24:50.368Z,3.35
2023-01-30T21:27:38.691Z,3.40
2023-01-30T21:30:25.609Z,3.22
2023-01-30T21:33:13.304Z,2.92
2023-01-30T21:35:59.826Z,3.42
2023-01-30T21:39:04.058Z,3.40
2023-01-30T21:42:08.592Z,3.47
2023-01-30T21:44:58.466Z,2.67
2023-01-30T21:47:44.422Z,3.40
2023-01-30T21:50:34.970Z,3.13
2023-01-30T21:53:21.439Z,3.08
2023-01-30T21:56:08.026Z,2.97
2023-01-30T21:58:55.794Z,8.23
2023-01-30T22:01:42.538Z,3.35
2023-01-30T22:04:28.265Z,3.25
2023-01-30T22:07:15.165Z,2.95
2023-01-30T22:10:02.197Z,3.17
2023-01-30T22:12:48.549Z,2.83
2023-01-30T22:15:34.482Z,3.40
2023-01-30T22:18:20.273Z,3.25
2023-01-30T22:21:11.049Z,3.00
2023-01-30T22:23:58.303Z,3.25
2023-01-30T22:26:44.259Z,2.80
2023-01-30T22:29:30.264Z,4.47
2023-01-30T22:32:15.766Z,3.30
2023-01-30T22:35:01.519Z,3.17
2023-01-30T22:37:47.155Z,3.33
2023-01-30T22:40:34.158Z,3.58
2023-01-30T22:43:19.847Z,2.97
2023-01-30T22:46:07.403Z,3.13
2023-01-30T22:48:54.071Z,2.90
2023-01-30T22:51:41.242Z,3.05
2023-01-30T22:54:29.261Z,3.28
2023-01-30T22:57:16.237Z,3.33
2023-01-30T23:00:05.290Z,3.55
2023-01-30T23:02:50.879Z,3.45
2023-01-30T23:05:37.016Z,3.22
2023-01-30T23:08:25.797Z,3.95
2023-01-30T23:11:15.755Z,3.30
2023-01-30T23:14:09.439Z,3.22
2023-01-30T23:16:55.312Z,3.35
2023-01-30T23:19:40.916Z,2.55
2023-01-30T23:22:26.521Z,2.83
2023-01-30T23:25:13.955Z,2.88
2023-01-30T23:28:00.346Z,3.30
2023-01-30T23:30:47.216Z,2.97
2023-01-30T23:33:32.819Z,3.65
2023-01-30T23:36:18.434Z,3.25
2023-01-30T23:39:05.447Z,2.88
2023-01-30T23:41:51.491Z,2.90
2023-01-30T23:44:40.216Z,2.78
2023-01-30T23:47:27.153Z,2.80
2023-01-30T23:50:13.255Z,3.20
2023-01-30T23:52:58.842Z,3.25
2023-01-30T23:55:51.131Z,2.83
2023-01-30T23:58:40.560Z,3.05
